Weather at Old Flamingo Airport [CLOSED]

Public forecast

Using degrees Celsius for public forecast. Weather courtesy of forecast.io.

Closest aviation weather report (METAR) to Old Flamingo Airport

Closest report is Flamingo International Airport, 3.3 nm (6.2 km) S. Retrieved 2021/06/22 12:55 UTC (21 minutes ago):

TNCB 221255Z 10013KT 070V150 9999 SCT018 29/24 Q1015

Closest aviation forecast (TAF) to Old Flamingo Airport

Closest forecast is Flamingo International Airport, 3.3 nm (6.2 km) S. Retrieved 2021/06/22 12:27 UTC (49 minutes ago):

TAF TAF TNCB 221102Z 2212/2318 08014KT 9999 SCT018